createdAt,value
2019-02-11T00:00:25.953Z,100829.50
2019-02-11T00:02:54.982Z,100827.44
2019-02-11T00:05:24.347Z,100836.09
2019-02-11T00:07:53.423Z,100842.41
2019-02-11T00:10:22.432Z,100855.94
2019-02-11T00:12:51.445Z,100859.10
2019-02-11T00:15:20.460Z,100865.22
2019-02-11T00:17:49.674Z,100876.36
2019-02-11T00:20:18.797Z,100878.50
2019-02-11T00:22:47.803Z,100881.02
2019-02-11T00:25:17.556Z,100889.11
2019-02-11T00:27:46.575Z,100903.72
2019-02-11T00:30:15.584Z,100906.81
2019-02-11T00:32:44.622Z,100916.98
2019-02-11T00:35:13.658Z,100920.09
2019-02-11T00:37:43.228Z,100924.94
2019-02-11T00:40:12.222Z,100929.38
2019-02-11T00:42:41.262Z,100928.80
2019-02-11T00:45:10.592Z,100937.51
2019-02-11T00:47:39.624Z,100935.23
2019-02-11T00:50:09.970Z,100932.54
2019-02-11T00:52:38.969Z,100942.11
2019-02-11T00:55:08.049Z,100946.97
2019-02-11T00:57:37.062Z,100944.95
2019-02-11T01:00:07.927Z,100952.59
2019-02-11T01:02:37.260Z,100948.87
2019-02-11T01:05:06.826Z,100950.11
2019-02-11T01:07:35.848Z,100953.84
2019-02-11T01:10:06.107Z,100969.35
2019-02-11T01:12:35.206Z,100969.89
2019-02-11T01:15:05.800Z,100979.26
2019-02-11T01:17:35.528Z,100977.94
2019-02-11T01:20:05.228Z,100979.63
2019-02-11T01:22:34.239Z,100990.75
2019-02-11T01:25:03.590Z,100992.86
2019-02-11T01:27:32.988Z,100994.89
2019-02-11T01:30:02.692Z,100999.58
2019-02-11T01:32:31.846Z,100993.64
2019-02-11T01:35:01.206Z,101001.13
2019-02-11T01:37:30.353Z,101010.97
2019-02-11T01:39:59.704Z,101017.91
2019-02-11T01:42:28.780Z,101013.01
2019-02-11T01:44:57.796Z,101012.30
2019-02-11T01:47:28.120Z,101020.55
2019-02-11T01:49:57.507Z,101026.25
2019-02-11T01:52:26.502Z,101032.27
2019-02-11T01:54:55.844Z,101031.30
2019-02-11T01:57:24.862Z,101042.39
2019-02-11T01:59:53.846Z,101047.46
2019-02-11T02:02:22.834Z,101051.22
2019-02-11T02:04:52.404Z,101055.66
2019-02-11T02:07:21.655Z,101051.34
2019-02-11T02:09:50.732Z,101061.58
2019-02-11T02:12:19.764Z,101061.22
2019-02-11T02:14:48.765Z,101064.81
2019-02-11T02:17:17.747Z,101074.36
2019-02-11T02:19:46.763Z,101069.90
2019-02-11T02:22:15.754Z,101079.57
2019-02-11T02:24:45.106Z,101075.55
2019-02-11T02:27:14.109Z,101071.73
2019-02-11T02:29:43.176Z,101071.47
2019-02-11T02:32:12.450Z,101074.14
2019-02-11T02:34:41.570Z,101086.92
2019-02-11T02:37:10.634Z,101086.91
2019-02-11T02:39:39.684Z,101083.55
2019-02-11T02:42:08.726Z,101086.80
2019-02-11T02:44:37.866Z,101089.31
2019-02-11T02:47:07.350Z,101094.84
2019-02-11T02:49:36.821Z,101096.06
2019-02-11T02:52:05.862Z,101097.51
2019-02-11T02:54:35.152Z,101092.08
2019-02-11T02:57:04.225Z,101096.79
2019-02-11T02:59:33.922Z,101099.69
2019-02-11T03:02:03.242Z,101105.93
2019-02-11T03:04:32.633Z,101111.83
2019-02-11T03:07:02.039Z,101105.82
2019-02-11T03:09:31.464Z,101111.45
2019-02-11T03:12:00.534Z,101110.97
2019-02-11T03:14:29.524Z,101118.64
2019-02-11T03:16:58.769Z,101124.92
2019-02-11T03:19:28.866Z,101116.98
2019-02-11T03:21:58.032Z,101121.79
2019-02-11T03:24:27.044Z,101126.13
2019-02-11T03:26:56.095Z,101122.50
2019-02-11T03:29:25.577Z,101126.02
2019-02-11T03:31:54.902Z,101136.84
2019-02-11T03:34:24.275Z,101145.50
2019-02-11T03:36:53.342Z,101151.41
2019-02-11T03:39:22.425Z,101145.63
2019-02-11T03:41:51.432Z,101148.27
2019-02-11T03:44:20.516Z,101153.16
2019-02-11T03:46:49.863Z,101157.75
2019-02-11T03:49:18.989Z,101163.64
2019-02-11T03:51:47.990Z,101168.69
2019-02-11T03:54:17.055Z,101175.14
2019-02-11T03:56:46.142Z,101181.30
2019-02-11T03:59:15.355Z,101185.09
2019-02-11T04:01:44.743Z,101192.55
2019-02-11T04:04:13.854Z,101192.92
2019-02-11T04:06:43.667Z,101191.09
2019-02-11T04:09:12.994Z,101201.44
2019-02-11T04:11:42.396Z,101197.58
2019-02-11T04:14:11.467Z,101205.79
2019-02-11T04:16:40.671Z,101203.60
2019-02-11T04:19:09.735Z,101208.30
2019-02-11T04:21:38.748Z,101217.09
2019-02-11T04:24:08.464Z,101217.97
2019-02-11T04:26:37.564Z,101222.41
2019-02-11T04:29:07.001Z,101227.48
2019-02-11T04:31:36.378Z,101237.88
2019-02-11T04:34:05.748Z,101245.50
2019-02-11T04:36:34.773Z,101244.66
2019-02-11T04:39:06.270Z,101251.63
2019-02-11T04:41:35.289Z,101251.61
2019-02-11T04:44:04.280Z,101256.73
2019-02-11T04:46:33.314Z,101261.81
2019-02-11T04:49:03.086Z,101269.52
2019-02-11T04:51:32.638Z,101262.62
2019-02-11T04:54:02.009Z,101276.56
2019-02-11T04:56:31.042Z,101277.16
2019-02-11T04:59:00.038Z,101282.36
2019-02-11T05:01:29.141Z,101284.61
2019-02-11T05:03:58.166Z,101286.42
2019-02-11T05:06:27.326Z,101292.66
2019-02-11T05:08:56.358Z,101292.71
2019-02-11T05:11:25.384Z,101294.33
2019-02-11T05:13:54.872Z,101295.78
2019-02-11T05:16:23.993Z,101297.74
2019-02-11T05:18:53.017Z,101310.02
2019-02-11T05:21:22.986Z,101306.23
2019-02-11T05:23:52.835Z,101303.89
2019-02-11T05:26:22.889Z,101301.90
2019-02-11T05:28:51.971Z,101313.84
2019-02-11T05:31:21.230Z,101315.23
2019-02-11T05:33:50.262Z,101315.97
2019-02-11T05:36:19.408Z,101325.44
2019-02-11T05:38:49.066Z,101331.19
2019-02-11T05:41:18.067Z,101341.66
2019-02-11T05:43:47.180Z,101339.78
2019-02-11T05:46:16.235Z,101355.87
2019-02-11T05:48:46.314Z,101362.94
2019-02-11T05:51:15.340Z,101357.33
2019-02-11T05:53:45.587Z,101354.69
2019-02-11T05:56:15.128Z,101364.16
2019-02-11T05:58:45.986Z,101375.02
2019-02-11T06:01:15.811Z,101378.77
2019-02-11T06:03:45.071Z,101378.70
2019-02-11T06:06:14.349Z,101391.59
2019-02-11T06:08:44.625Z,101396.01
2019-02-11T06:11:14.073Z,101406.42
2019-02-11T06:13:43.364Z,101403.25
2019-02-11T06:16:12.570Z,101408.20
2019-02-11T06:18:42.060Z,101413.20
2019-02-11T06:21:11.521Z,101413.86
2019-02-11T06:23:40.646Z,101415.22
2019-02-11T06:26:09.639Z,101420.30
2019-02-11T06:28:39.053Z,101432.05
2019-02-11T06:31:08.116Z,101431.95
2019-02-11T06:33:37.203Z,101435.27
2019-02-11T06:36:12.303Z,101441.18
2019-02-11T06:38:38.044Z,101449.89
2019-02-11T06:41:07.091Z,101456.93
2019-02-11T06:43:36.229Z,101466.22
2019-02-11T06:46:05.638Z,101464.00
2019-02-11T06:48:34.651Z,101473.05
2019-02-11T06:51:03.979Z,101487.04
2019-02-11T06:53:32.984Z,101495.00
2019-02-11T06:56:02.353Z,101496.32
2019-02-11T06:58:31.834Z,101508.23
2019-02-11T07:01:01.150Z,101504.69
2019-02-11T07:03:30.557Z,101503.20
2019-02-11T07:05:59.980Z,101509.25
2019-02-11T07:08:29.187Z,101517.94
2019-02-11T07:10:58.262Z,101523.81
2019-02-11T07:13:27.623Z,101526.24
2019-02-11T07:15:56.659Z,101526.80
2019-02-11T07:18:26.014Z,101532.27
2019-02-11T07:20:55.019Z,101541.87
2019-02-11T07:23:24.879Z,101539.72
2019-02-11T07:25:53.890Z,101545.53
2019-02-11T07:28:23.274Z,101549.08
2019-02-11T07:30:52.281Z,101554.27
2019-02-11T07:33:21.332Z,101555.20
2019-02-11T07:35:50.380Z,101557.62
2019-02-11T07:38:19.437Z,101559.48
2019-02-11T07:40:48.853Z,101574.61
2019-02-11T07:43:28.392Z,101582.16
2019-02-11T07:46:07.872Z,101583.12
2019-02-11T07:48:37.264Z,101595.21
2019-02-11T07:51:06.278Z,101604.25
2019-02-11T07:53:35.321Z,101612.94
2019-02-11T07:56:04.314Z,101617.16
2019-02-11T07:58:33.338Z,101623.13
2019-02-11T08:01:02.708Z,101631.17
2019-02-11T08:03:31.761Z,101638.67
2019-02-11T08:06:00.790Z,101641.21
2019-02-11T08:08:29.794Z,101644.19
2019-02-11T08:10:59.134Z,101646.39
2019-02-11T08:13:28.161Z,101654.72
2019-02-11T08:15:57.189Z,101658.49
2019-02-11T08:18:26.227Z,101666.86
2019-02-11T08:20:55.241Z,101671.56
2019-02-11T08:23:24.239Z,101678.02
2019-02-11T08:25:53.541Z,101680.84
2019-02-11T08:28:22.907Z,101691.03
2019-02-11T08:30:52.298Z,101696.75
2019-02-11T08:33:21.304Z,101694.20
2019-02-11T08:35:50.392Z,101695.49
2019-02-11T08:38:19.887Z,101706.41
2019-02-11T08:40:48.961Z,101714.20
2019-02-11T08:43:17.986Z,101724.95
2019-02-11T08:45:47.442Z,101719.78
2019-02-11T08:48:16.934Z,101730.38
2019-02-11T08:50:45.967Z,101735.09
2019-02-11T08:53:14.984Z,101743.23
2019-02-11T08:55:43.990Z,101748.37
2019-02-11T08:58:13.015Z,101746.05
2019-02-11T09:00:42.034Z,101749.83
2019-02-11T09:03:11.058Z,101756.27
2019-02-11T09:05:40.134Z,101764.83
2019-02-11T09:08:09.526Z,101759.36
2019-02-11T09:10:38.810Z,101770.05
2019-02-11T09:13:07.843Z,101770.44
2019-02-11T09:15:37.372Z,101765.34
2019-02-11T09:18:06.483Z,101775.13
2019-02-11T09:20:35.526Z,101778.75
2019-02-11T09:23:05.426Z,101778.12
2019-02-11T09:25:34.479Z,101791.06
2019-02-11T09:28:03.508Z,101797.81
2019-02-11T09:30:32.536Z,101805.18
2019-02-11T09:33:01.522Z,101814.75
2019-02-11T09:35:30.555Z,101810.11
2019-02-11T09:37:59.594Z,101825.62
2019-02-11T09:40:28.603Z,101836.05
2019-02-11T09:42:57.703Z,101842.73
2019-02-11T09:45:26.987Z,101849.73
2019-02-11T09:47:56.023Z,101851.14
2019-02-11T09:50:31.295Z,101853.42
2019-02-11T09:53:00.359Z,101854.06
2019-02-11T09:55:31.147Z,101852.05
2019-02-11T09:58:00.200Z,101861.58
2019-02-11T10:00:29.733Z,101869.80
2019-02-11T10:02:59.038Z,101863.05
2019-02-11T10:05:28.088Z,101874.47
2019-02-11T10:07:57.123Z,101890.27
2019-02-11T10:10:26.150Z,101896.94
2019-02-11T10:12:55.563Z,101911.87
2019-02-11T10:15:24.676Z,101915.53
2019-02-11T10:17:53.707Z,101928.64
2019-02-11T10:20:22.773Z,101931.45
2019-02-11T10:22:52.226Z,101935.88
2019-02-11T10:25:23.509Z,101945.22
2019-02-11T10:27:53.698Z,101951.74
2019-02-11T10:30:22.715Z,101953.28
2019-02-11T10:32:51.712Z,101959.52
2019-02-11T10:35:21.082Z,101970.45
2019-02-11T10:37:50.389Z,101969.48
2019-02-11T10:40:19.431Z,101979.03
2019-02-11T10:42:48.490Z,101989.70
2019-02-11T10:45:17.870Z,101986.21
2019-02-11T10:47:47.365Z,101994.98
2019-02-11T10:50:17.373Z,101994.98
2019-02-11T10:52:46.447Z,102004.80
2019-02-11T10:55:16.193Z,102004.88
2019-02-11T10:57:45.585Z,102004.88
2019-02-11T11:00:20.014Z,102011.41
2019-02-11T11:02:49.363Z,102016.94
2019-02-11T11:05:18.449Z,102012.12
2019-02-11T11:07:47.551Z,102020.03
2019-02-11T11:10:26.105Z,102029.22
2019-02-11T11:12:55.156Z,102042.97
2019-02-11T11:15:24.361Z,102051.03
2019-02-11T11:17:53.742Z,102056.38
2019-02-11T11:20:23.139Z,102065.57
2019-02-11T11:22:52.125Z,102065.57
2019-02-11T11:25:21.188Z,102078.19
2019-02-11T11:27:50.231Z,102071.95
2019-02-11T11:30:20.247Z,102085.91
2019-02-11T11:32:49.375Z,102095.46
2019-02-11T11:35:18.669Z,102103.86
2019-02-11T11:37:47.791Z,102112.88
2019-02-11T11:40:17.601Z,102122.46
2019-02-11T11:42:46.596Z,102121.88
2019-02-11T11:45:17.012Z,102114.16
2019-02-11T11:47:46.035Z,102108.16
2019-02-11T11:50:16.373Z,102108.14
2019-02-11T11:52:45.416Z,102116.25
2019-02-11T11:55:15.599Z,102106.41
2019-02-11T11:57:45.000Z,102106.41
2019-02-11T12:00:20.581Z,102123.25
2019-02-11T12:03:01.424Z,102126.34
2019-02-11T12:05:20.682Z,102129.52
2019-02-11T12:07:51.666Z,102125.17
2019-02-11T12:10:20.710Z,102138.91
2019-02-11T12:12:49.758Z,102129.84
2019-02-11T12:15:20.828Z,102136.30
2019-02-11T12:17:50.148Z,102126.59
2019-02-11T12:20:19.235Z,102135.31
2019-02-11T12:22:48.753Z,102134.70
2019-02-11T12:25:18.021Z,102141.78
2019-02-11T12:27:47.142Z,102141.56
2019-02-11T12:30:18.566Z,102137.97
2019-02-11T12:32:48.167Z,102142.25
2019-02-11T12:35:17.199Z,102146.22
2019-02-11T12:37:46.371Z,102157.24
2019-02-11T12:40:15.695Z,102156.28
2019-02-11T12:42:44.737Z,102161.29
2019-02-11T12:45:19.060Z,102167.45
2019-02-11T12:47:48.151Z,102177.39
2019-02-11T12:50:17.738Z,102174.69
2019-02-11T12:52:47.262Z,102186.37
2019-02-11T12:55:16.693Z,102191.42
2019-02-11T12:57:46.025Z,102197.17
2019-02-11T13:00:17.901Z,102201.16
2019-02-11T13:02:47.947Z,102206.94
2019-02-11T13:05:21.955Z,102220.97
2019-02-11T13:07:48.782Z,102231.02
2019-02-11T13:10:18.456Z,102226.22
2019-02-11T13:12:47.480Z,102216.39
2019-02-11T13:15:42.029Z,102228.36
2019-02-11T13:17:47.342Z,102231.18
2019-02-11T13:20:16.552Z,102236.41
2019-02-11T13:22:46.451Z,102236.37
2019-02-11T13:25:16.424Z,102241.85
2019-02-11T13:27:45.548Z,102254.97
2019-02-11T13:30:17.051Z,102259.59
2019-02-11T13:32:46.085Z,102265.55
2019-02-11T13:35:15.179Z,102276.77
2019-02-11T13:37:45.024Z,102282.44
2019-02-11T13:40:15.024Z,102280.84
2019-02-11T13:42:44.045Z,102283.05
2019-02-11T13:45:15.077Z,102281.80
2019-02-11T13:47:53.808Z,102283.78
2019-02-11T13:50:18.195Z,102290.27
2019-02-11T13:52:47.830Z,102289.80
2019-02-11T13:55:17.167Z,102291.09
2019-02-11T13:57:46.331Z,102295.76
2019-02-11T14:00:22.363Z,102304.06
2019-02-11T14:02:53.573Z,102312.12
2019-02-11T14:05:22.847Z,102317.56
2019-02-11T14:07:52.293Z,102321.94
2019-02-11T14:10:21.320Z,102326.91
2019-02-11T14:12:51.185Z,102329.16
2019-02-11T14:15:21.565Z,102345.63
2019-02-11T14:18:09.481Z,102347.31
2019-02-11T14:20:25.845Z,102357.75
2019-02-11T14:22:55.215Z,102362.56
2019-02-11T14:25:40.741Z,102376.77
2019-02-11T14:27:55.075Z,102370.80
2019-02-11T14:30:24.523Z,102375.69
2019-02-11T14:32:53.548Z,102387.75
2019-02-11T14:35:23.012Z,102389.66
2019-02-11T14:37:52.111Z,102394.34
2019-02-11T14:40:21.210Z,102400.42
2019-02-11T14:42:50.205Z,102402.67
2019-02-11T14:45:19.292Z,102405.69
2019-02-11T14:47:48.362Z,102408.78
2019-02-11T14:50:17.389Z,102412.02
2019-02-11T14:52:46.456Z,102422.89
2019-02-11T14:55:15.895Z,102429.07
2019-02-11T14:57:44.901Z,102428.62
2019-02-11T15:00:18.292Z,102436.73
2019-02-11T15:02:47.305Z,102429.47
2019-02-11T15:05:16.751Z,102444.83
2019-02-11T15:07:46.260Z,102449.66
2019-02-11T15:10:15.842Z,102453.08
2019-02-11T15:12:45.201Z,102457.81
2019-02-11T15:15:14.472Z,102458.36
2019-02-11T15:17:43.846Z,102467.78
2019-02-11T15:20:14.277Z,102470.67
2019-02-11T15:22:43.260Z,102479.19
2019-02-11T15:25:14.030Z,102487.98
2019-02-11T15:27:43.298Z,102504.39
2019-02-11T15:30:17.507Z,102501.73
2019-02-11T15:32:46.520Z,102502.13
2019-02-11T15:35:15.960Z,102515.62
2019-02-11T15:37:45.246Z,102522.53
2019-02-11T15:40:17.120Z,102520.70
2019-02-11T15:42:46.130Z,102523.38
2019-02-11T15:45:15.500Z,102509.89
2019-02-11T15:47:44.560Z,102509.89
2019-02-11T15:50:14.281Z,102531.90
2019-02-11T15:52:43.322Z,102542.71
2019-02-11T15:55:14.861Z,102542.71
2019-02-11T15:57:43.884Z,102538.47
2019-02-11T16:00:15.400Z,102540.14
2019-02-11T16:02:44.736Z,102547.28
2019-02-11T16:05:16.746Z,102551.62
2019-02-11T16:07:44.778Z,102564.23
2019-02-11T16:10:15.648Z,102562.07
2019-02-11T16:12:44.702Z,102560.71
2019-02-11T16:15:13.880Z,102566.38
2019-02-11T16:17:43.191Z,102570.78
2019-02-11T16:20:14.335Z,102573.81
2019-02-11T16:22:43.385Z,102581.72
2019-02-11T16:25:12.630Z,102589.13
2019-02-11T16:27:41.730Z,102602.03
2019-02-11T16:30:14.174Z,102613.09
2019-02-11T16:32:43.262Z,102625.78
2019-02-11T16:35:12.979Z,102636.52
2019-02-11T16:37:41.998Z,102638.09
2019-02-11T16:40:19.771Z,102630.23
2019-02-11T16:42:48.840Z,102622.78
2019-02-11T16:45:17.846Z,102626.16
2019-02-11T16:47:46.975Z,102631.23
2019-02-11T16:50:16.011Z,102634.84
2019-02-11T16:52:45.440Z,102638.45
2019-02-11T16:55:14.634Z,102629.11
2019-02-11T16:57:43.675Z,102622.13
2019-02-11T17:00:14.206Z,102626.09
2019-02-11T17:02:43.608Z,102636.49
2019-02-11T17:05:12.737Z,102633.86
2019-02-11T17:07:42.474Z,102632.69
2019-02-11T17:10:12.663Z,102637.66
2019-02-11T17:12:41.736Z,102648.53
2019-02-11T17:15:12.858Z,102659.73
2019-02-11T17:17:41.904Z,102657.95
2019-02-11T17:20:11.572Z,102675.86
2019-02-11T17:22:40.579Z,102687.52
2019-02-11T17:25:10.232Z,102700.71
2019-02-11T17:27:39.248Z,102695.77
2019-02-11T17:30:11.361Z,102706.28
2019-02-11T17:32:40.437Z,102718.28
2019-02-11T17:35:09.859Z,102735.86
2019-02-11T17:37:39.244Z,102730.42
2019-02-11T17:40:09.394Z,102733.81
2019-02-11T17:42:38.431Z,102736.28
2019-02-11T17:45:10.169Z,102735.51
2019-02-11T17:47:39.287Z,102746.65
2019-02-11T17:50:09.386Z,102752.14
2019-02-11T17:52:38.398Z,102754.78
2019-02-11T17:55:09.114Z,102760.77
2019-02-11T17:57:38.180Z,102763.04
2019-02-11T18:00:11.710Z,102770.67
2019-02-11T18:02:40.727Z,102768.59
2019-02-11T18:05:09.793Z,102779.44
2019-02-11T18:07:38.866Z,102796.01
2019-02-11T18:10:08.227Z,102817.52
2019-02-11T18:12:37.449Z,102820.94
2019-02-11T18:15:07.744Z,102822.68
2019-02-11T18:17:36.765Z,102830.45
2019-02-11T18:20:06.212Z,102830.19
2019-02-11T18:22:35.638Z,102834.76
2019-02-11T18:25:05.324Z,102833.52
2019-02-11T18:27:34.681Z,102835.43
2019-02-11T18:30:05.841Z,102836.02
2019-02-11T18:32:35.438Z,102842.20
2019-02-11T18:35:05.500Z,102843.44
2019-02-11T18:37:34.870Z,102840.95
2019-02-11T18:40:04.192Z,102847.79
2019-02-11T18:42:33.443Z,102851.41
2019-02-11T18:45:02.864Z,102856.24
2019-02-11T18:47:31.969Z,102868.86
2019-02-11T18:50:01.030Z,102875.20
2019-02-11T18:52:30.397Z,102875.98
2019-02-11T18:54:59.475Z,102876.23
2019-02-11T18:57:28.955Z,102872.23
2019-02-11T18:59:58.036Z,102880.58
2019-02-11T19:02:27.350Z,102881.85
2019-02-11T19:04:56.364Z,102874.30
2019-02-11T19:07:25.533Z,102879.31
2019-02-11T19:09:55.167Z,102875.89
2019-02-11T19:12:24.761Z,102883.43
2019-02-11T19:14:54.162Z,102884.36
2019-02-11T19:17:41.090Z,102893.34
2019-02-11T19:20:11.844Z,102895.72
2019-02-11T19:22:41.240Z,102899.66
2019-02-11T19:25:11.706Z,102899.06
2019-02-11T19:27:41.462Z,102899.22
2019-02-11T19:30:16.512Z,102897.85
2019-02-11T19:32:45.544Z,102894.42
2019-02-11T19:35:15.358Z,102912.41
2019-02-11T19:37:44.738Z,102906.75
2019-02-11T19:40:14.653Z,102903.65
2019-02-11T19:42:43.695Z,102909.48
2019-02-11T19:45:14.640Z,102911.22
2019-02-11T19:47:43.816Z,102919.95
2019-02-11T19:50:14.411Z,102910.01
2019-02-11T19:52:43.699Z,102924.25
2019-02-11T19:55:13.182Z,102924.57
2019-02-11T19:57:42.225Z,102921.31
2019-02-11T20:00:15.531Z,102925.03
2019-02-11T20:02:45.202Z,102933.81
2019-02-11T20:05:14.520Z,102929.41
2019-02-11T20:07:43.592Z,102929.94
2019-02-11T20:10:13.257Z,102927.98
2019-02-11T20:12:42.288Z,102933.28
2019-02-11T20:15:13.588Z,102935.59
2019-02-11T20:17:43.221Z,102941.25
2019-02-11T20:20:14.006Z,102940.14
2019-02-11T20:22:43.055Z,102938.59
2019-02-11T20:25:13.563Z,102937.21
2019-02-11T20:27:43.412Z,102934.23
2019-02-11T20:30:14.595Z,102941.91
2019-02-11T20:32:43.904Z,102952.05
2019-02-11T20:35:13.310Z,102948.78
2019-02-11T20:37:42.451Z,102955.20
2019-02-11T20:40:13.663Z,102950.44
2019-02-11T20:42:42.782Z,102956.75
2019-02-11T20:45:14.362Z,102960.80
2019-02-11T20:47:43.685Z,102963.64
2019-02-11T20:50:12.988Z,102970.83
2019-02-11T20:52:42.071Z,102974.63
2019-02-11T20:55:12.139Z,102976.42
2019-02-11T20:57:41.204Z,102976.50
2019-02-11T21:00:16.919Z,102972.53
2019-02-11T21:02:46.071Z,102980.32
2019-02-11T21:05:15.770Z,102987.95
2019-02-11T21:07:45.210Z,102983.22
2019-02-11T21:10:15.156Z,102979.70
2019-02-11T21:12:44.617Z,102980.72
2019-02-11T21:15:14.299Z,102983.94
2019-02-11T21:17:43.341Z,102983.52
2019-02-11T21:20:18.506Z,102985.08
2019-02-11T21:22:47.869Z,102996.63
2019-02-11T21:25:16.978Z,102995.16
2019-02-11T21:27:46.429Z,102991.24
2019-02-11T21:30:15.824Z,102996.94
2019-02-11T21:32:45.374Z,103000.65
2019-02-11T21:35:14.671Z,102997.55
2019-02-11T21:37:43.980Z,103005.08
2019-02-11T21:40:13.434Z,103006.88
2019-02-11T21:42:44.509Z,103007.43
2019-02-11T21:45:13.904Z,103002.06
2019-02-11T21:47:42.964Z,103007.89
2019-02-11T21:50:13.277Z,103001.17
2019-02-11T21:52:42.626Z,103011.75
2019-02-11T21:55:12.607Z,103020.02
2019-02-11T21:57:41.661Z,103023.98
2019-02-11T22:00:13.091Z,103035.44
2019-02-11T22:02:42.204Z,103031.02
2019-02-11T22:05:11.250Z,103032.58
2019-02-11T22:07:40.267Z,103027.86
2019-02-11T22:10:11.146Z,103025.64
2019-02-11T22:12:40.195Z,103037.25
2019-02-11T22:15:10.033Z,103048.98
2019-02-11T22:17:39.101Z,103051.47
2019-02-11T22:20:11.671Z,103058.75
2019-02-11T22:22:40.803Z,103050.82
2019-02-11T22:25:10.425Z,103064.48
2019-02-11T22:27:40.077Z,103064.11
2019-02-11T22:30:12.414Z,103068.69
2019-02-11T22:32:42.094Z,103069.41
2019-02-11T22:35:11.569Z,103072.31
2019-02-11T22:37:40.975Z,103079.52
2019-02-11T22:40:11.111Z,103075.36
2019-02-11T22:42:40.140Z,103069.41
2019-02-11T22:45:11.314Z,103080.15
2019-02-11T22:47:40.528Z,103090.98
2019-02-11T22:50:10.386Z,103090.86
2019-02-11T22:52:39.758Z,103102.89
2019-02-11T22:55:10.716Z,103098.34
2019-02-11T22:57:40.464Z,103100.32
2019-02-11T23:00:20.620Z,103112.94
2019-02-11T23:02:49.980Z,103114.50
2019-02-11T23:05:19.034Z,103103.27
2019-02-11T23:07:48.056Z,103102.48
2019-02-11T23:10:17.464Z,103105.77
2019-02-11T23:12:46.498Z,103103.05
2019-02-11T23:15:15.590Z,103106.95
2019-02-11T23:17:44.900Z,103121.29
2019-02-11T23:20:14.228Z,103122.29
2019-02-11T23:22:43.326Z,103123.55
2019-02-11T23:25:12.311Z,103127.11
2019-02-11T23:27:41.643Z,103122.20
2019-02-11T23:30:13.446Z,103126.28
2019-02-11T23:32:41.846Z,103133.53
2019-02-11T23:35:11.184Z,103137.81
2019-02-11T23:37:40.196Z,103143.09
2019-02-11T23:40:09.905Z,103149.13
2019-02-11T23:42:38.908Z,103153.83
2019-02-11T23:45:08.462Z,103154.99
2019-02-11T23:47:37.532Z,103155.98
2019-02-11T23:50:06.723Z,103162.66
2019-02-11T23:52:35.750Z,103161.19
2019-02-11T23:55:05.262Z,103167.11
2019-02-11T23:57:34.713Z,103174.12
